Time;durP1;ratioP1;P1;durP2;ratioP2;P2;SDS_P1;SDS_P2;PMS_P1;PMS_P2;Temp;Humidity;BMP_temperature;BMP_pressure;BME280_temperature;BME280_humidity;BME280_pressure;Samples;Min_cycle;Max_cycle;Signal;HPM_P1;HPM_P2
2022/08/10 00:00:52;;;;;;;;;7.00;7.00;;;;;18.61;47.80;100901.59;5119383;28;8859;-61
2022/08/10 00:03:20;;;;;;;;;7.00;6.20;;;;;18.58;47.47;100905.44;5119822;28;8872;-61
2022/08/10 00:05:48;;;;;;;;;6.80;6.80;;;;;18.54;47.70;100895.09;5118986;28;8820;-61
2022/08/10 00:08:19;;;;;;;;;5.80;5.40;;;;;18.52;48.04;100905.19;5137171;27;8936;-61
2022/08/10 00:10:50;;;;;;;;;4.00;4.00;;;;;18.50;48.06;100897.22;5139188;27;8878;-61
2022/08/10 00:13:17;;;;;;;;;6.40;6.00;;;;;18.47;47.99;100897.53;5139924;27;8818;-62
2022/08/10 00:15:45;;;;;;;;;5.60;5.40;;;;;18.46;48.02;100895.84;5140233;27;8822;-62
2022/08/10 00:18:21;;;;;;;;;3.40;3.40;;;;;18.42;48.63;100897.13;5139413;27;8838;-62
2022/08/10 00:21:02;;;;;;;;;4.00;4.00;;;;;18.41;48.44;100891.88;5139527;27;9507;-61
2022/08/10 00:23:30;;;;;;;;;6.00;6.00;;;;;18.39;48.77;100891.19;5139529;27;8981;-63
2022/08/10 00:25:58;;;;;;;;;6.00;6.00;;;;;18.38;48.04;100893.00;5139009;27;8842;-62
2022/08/10 00:28:25;;;;;;;;;6.00;4.60;;;;;18.36;48.50;100889.63;5138057;27;8834;-62
2022/08/10 00:30:53;;;;;;;;;6.00;5.20;;;;;18.33;48.31;100889.94;5139337;27;8906;-63
2022/08/10 00:33:22;;;;;;;;;6.00;6.00;;;;;18.32;48.29;100882.84;5139509;27;8948;-62
2022/08/10 00:35:50;;;;;;;;;4.80;4.80;;;;;18.30;48.59;100879.41;5139330;27;8864;-62
2022/08/10 00:38:18;;;;;;;;;4.80;4.80;;;;;18.29;48.61;100872.28;5139790;27;9519;-61
2022/08/10 00:40:46;;;;;;;;;5.40;4.00;;;;;18.29;48.19;100880.38;5139223;27;9030;-62
2022/08/10 00:43:14;;;;;;;;;4.20;4.20;;;;;18.28;47.93;100878.69;5139384;27;8826;-62
2022/08/10 00:45:49;;;;;;;;;3.00;3.00;;;;;18.27;48.51;100877.00;5139313;27;8927;-64
2022/08/10 00:48:26;;;;;;;;;6.00;6.00;;;;;18.26;48.67;100882.53;5139353;27;8871;-62
2022/08/10 00:50:54;;;;;;;;;7.40;6.20;;;;;18.22;48.54;100878.44;5139281;27;9502;-62
2022/08/10 00:53:22;;;;;;;;;6.00;6.00;;;;;18.19;48.97;100870.63;5138939;27;8943;-63
2022/08/10 00:55:52;;;;;;;;;1.80;1.40;;;;;18.15;49.13;100870.06;5138961;27;8837;-62
2022/08/10 00:58:40;;;;;;;;;5.60;5.60;;;;;18.12;48.46;100869.53;5130563;27;8862;-62
2022/08/10 01:01:08;;;;;;;;;7.00;7.00;;;;;18.09;48.84;100867.13;5118733;28;8966;-62
2022/08/10 01:03:55;;;;;;;;;6.00;5.20;;;;;18.06;48.86;100864.75;5118016;28;8844;-62
2022/08/10 01:06:43;;;;;;;;;6.60;6.00;;;;;18.04;48.87;100872.97;5118130;28;8844;-62
2022/08/10 01:09:11;;;;;;;;;5.60;4.00;;;;;18.01;49.21;100867.03;5118106;28;8917;-61
2022/08/10 01:11:39;;;;;;;;;3.20;3.20;;;;;17.98;49.41;100864.63;5118788;28;8854;-63
2022/08/10 01:14:26;;;;;;;;;4.00;3.40;;;;;17.93;48.87;100865.03;5116998;28;8836;-62
2022/08/10 01:16:54;;;;;;;;;6.20;6.00;;;;;17.90;49.41;100864.50;5118373;28;8888;-62
2022/08/10 01:19:22;;;;;;;;;4.00;4.00;;;;;17.87;49.01;100860.25;5117984;28;8828;-62
2022/08/10 01:21:50;;;;;;;;;6.00;5.20;;;;;17.85;48.97;100861.38;5118528;28;8968;-62
2022/08/10 01:24:23;;;;;;;;;8.60;8.60;;;;;17.83;49.45;100863.38;5117662;28;8840;-63
2022/08/10 01:26:51;;;;;;;;;5.60;5.60;;;;;17.82;49.38;100865.22;5118167;28;8827;-62
2022/08/10 01:29:19;;;;;;;;;5.80;4.80;;;;;17.79;49.64;100868.22;5130149;27;8822;-63
2022/08/10 01:31:47;;;;;;;;;6.20;5.00;;;;;17.76;49.49;100865.78;5138387;27;8836;-62
2022/08/10 01:34:15;;;;;;;;;6.00;6.00;;;;;17.75;49.18;100857.88;5138677;27;8956;-62
2022/08/10 01:36:44;;;;;;;;;6.00;6.00;;;;;17.72;49.84;100850.94;5135546;27;8825;-62
2022/08/10 01:39:12;;;;;;;;;6.00;6.00;;;;;17.69;49.42;100861.97;5138198;27;8841;-62
2022/08/10 01:41:40;;;;;;;;;5.60;5.60;;;;;17.67;49.75;100855.03;5138525;27;9510;-62
2022/08/10 01:44:13;;;;;;;;;6.00;6.00;;;;;17.64;49.87;100842.72;5138134;27;8852;-62
2022/08/10 01:46:41;;;;;;;;;6.20;5.40;;;;;17.62;49.96;100846.56;5138809;27;8944;-62
2022/08/10 01:49:08;;;;;;;;;8.20;6.60;;;;;17.58;49.63;100846.00;5138162;27;8868;-62
2022/08/10 01:51:35;;;;;;;;;4.00;3.40;;;;;17.55;49.57;100838.19;5138250;27;8936;-62
2022/08/10 01:54:03;;;;;;;;;6.40;6.40;;;;;17.53;49.97;100839.34;5137611;27;8906;-62
2022/08/10 01:56:37;;;;;;;;;4.00;3.60;;;;;17.51;50.23;100844.00;5138025;27;9521;-62
2022/08/10 01:59:06;;;;;;;;;6.20;5.60;;;;;17.47;49.81;100848.81;5137107;27;8830;-62
2022/08/10 02:01:34;;;;;;;;;5.80;5.60;;;;;17.43;49.99;100850.13;5138145;27;8826;-62
2022/08/10 02:04:01;;;;;;;;;3.50;3.50;;;;;17.39;50.92;100851.38;5138056;27;8826;-62
2022/08/10 02:06:32;;;;;;;;;3.00;3.00;;;;;17.34;50.64;100853.66;5135072;27;8829;-63
2022/08/10 02:08:59;;;;;;;;;4.40;4.40;;;;;17.31;50.50;100845.84;5137477;27;8952;-62
2022/08/10 02:11:33;;;;;;;;;6.00;6.00;;;;;17.32;50.48;100855.59;5137878;27;8805;-62
2022/08/10 02:14:21;;;;;;;;;7.50;7.00;;;;;17.36;50.84;100854.38;5137453;27;8879;-61
2022/08/10 02:16:49;;;;;;;;;6.00;5.50;;;;;17.41;50.59;100860.19;5137404;27;8872;-62
2022/08/10 02:19:16;;;;;;;;;5.00;5.00;;;;;17.42;50.47;100851.13;5137184;27;9540;-62
2022/08/10 02:21:44;;;;;;;;;7.00;7.00;;;;;17.40;50.81;100854.94;5137605;27;8821;-62
2022/08/10 02:24:32;;;;;;;;;6.50;5.50;;;;;17.36;50.99;100857.06;5137167;27;8849;-62
2022/08/10 02:26:59;;;;;;;;;6.00;6.00;;;;;17.33;50.91;100854.59;5137613;27;8829;-62
2022/08/10 02:29:29;;;;;;;;;8.00;8.00;;;;;17.29;51.14;100855.91;5137237;27;8880;-62
2022/08/10 02:31:57;;;;;;;;;7.50;7.50;;;;;17.26;50.83;100858.91;5137228;27;8879;-62
2022/08/10 02:34:26;;;;;;;;;4.00;4.00;;;;;17.23;50.80;100852.94;5137776;27;8852;-62
2022/08/10 02:36:54;;;;;;;;;6.00;6.00;;;;;17.18;50.73;100849.81;5119123;27;9604;-61
2022/08/10 02:39:22;;;;;;;;;7.00;6.00;;;;;17.13;51.08;100852.06;5116865;28;8916;-63
2022/08/10 02:41:50;;;;;;;;;6.75;6.00;;;;;17.08;51.09;100860.56;5116905;28;8951;-62
2022/08/10 02:44:38;;;;;;;;;5.50;5.50;;;;;17.01;51.04;100858.59;5116819;28;9517;-62
2022/08/10 02:47:25;;;;;;;;;6.00;6.00;;;;;16.94;51.21;100858.28;5116478;28;8847;-62
2022/08/10 02:49:53;;;;;;;;;5.50;5.00;;;;;16.89;51.56;100860.56;5119896;28;8854;-63
2022/08/10 02:52:21;;;;;;;;;7.00;7.00;;;;;16.85;51.03;100853.75;5120635;28;8846;-62
2022/08/10 02:54:49;;;;;;;;;3.75;3.75;;;;;16.81;51.63;100849.66;5120856;28;9068;-61
2022/08/10 02:57:18;;;;;;;;;3.50;3.50;;;;;16.71;52.04;100856.84;5121171;28;8969;-61
2022/08/10 02:59:45;;;;;;;;;7.00;6.75;;;;;16.56;52.05;100847.47;5120902;28;8962;-61
2022/08/10 03:02:13;;;;;;;;;9.25;8.50;;;;;16.41;52.59;100861.44;5120880;28;8850;-62
2022/08/10 03:04:41;;;;;;;;;6.00;6.00;;;;;16.26;52.56;100855.53;5121254;27;8840;-61
2022/08/10 03:07:24;;;;;;;;;6.50;6.00;;;;;16.14;52.81;100860.31;5141746;27;8833;-61
2022/08/10 03:10:10;;;;;;;;;8.50;7.50;;;;;16.02;53.25;100861.38;5141230;27;8825;-63
2022/08/10 03:12:41;;;;;;;;;10.00;7.00;;;;;15.93;53.49;100862.19;5141314;27;8836;-62
2022/08/10 03:15:08;;;;;;;;;6.50;6.25;;;;;15.89;53.88;100860.75;5141046;27;8975;-63
2022/08/10 03:17:42;;;;;;;;;8.50;8.50;;;;;15.85;53.07;100867.38;5141350;27;9568;-63
2022/08/10 03:20:24;;;;;;;;;6.50;6.00;;;;;15.83;53.28;100861.25;5141223;27;8830;-63
2022/08/10 03:23:05;;;;;;;;;6.00;6.00;;;;;15.79;53.38;100859.84;5141073;27;8834;-63
2022/08/10 03:25:33;;;;;;;;;7.75;6.00;;;;;15.73;53.64;100857.69;5140984;27;8968;-62
2022/08/10 03:28:01;;;;;;;;;3.25;3.25;;;;;15.66;53.42;100869.94;5141250;27;8829;-62
2022/08/10 03:30:30;;;;;;;;;4.50;4.50;;;;;15.58;53.67;100857.19;5140416;27;8830;-63
2022/08/10 03:33:01;;;;;;;;;7.25;6.25;;;;;15.52;53.68;100859.50;5141363;27;9475;-62
2022/08/10 03:35:28;;;;;;;;;6.25;5.00;;;;;15.46;54.25;100866.25;5138106;27;8845;-63
2022/08/10 03:37:56;;;;;;;;;6.75;6.75;;;;;15.41;53.88;100865.78;5140951;27;8825;-62
2022/08/10 03:40:26;;;;;;;;;9.00;8.00;;;;;15.37;53.98;100864.38;5140321;27;8841;-62
2022/08/10 03:43:12;;;;;;;;;7.75;7.75;;;;;15.35;54.42;100868.16;5140523;27;8830;-62
2022/08/10 03:45:40;;;;;;;;;8.00;6.75;;;;;15.32;54.15;100868.44;5140279;27;8984;-62
2022/08/10 03:48:22;;;;;;;;;7.50;6.50;;;;;15.32;54.16;100861.22;5140390;27;8960;-62
2022/08/10 03:50:50;;;;;;;;;10.50;9.00;;;;;15.34;54.45;100869.13;5140273;27;9471;-62
2022/08/10 03:53:19;;;;;;;;;6.00;5.00;;;;;15.34;54.47;100863.78;5140446;27;8829;-62
2022/08/10 03:56:07;;;;;;;;;11.00;8.00;;;;;15.36;54.37;100861.81;5140182;27;8939;-62
2022/08/10 03:58:54;;;;;;;;;9.50;9.25;;;;;15.36;53.96;100867.16;5139994;27;8853;-62
2022/08/10 04:01:22;;;;;;;;;6.50;6.00;;;;;15.34;54.32;100861.94;5128328;27;8800;-62
2022/08/10 04:04:10;;;;;;;;;11.00;9.50;;;;;15.31;54.35;100861.31;5118027;28;8909;-62
2022/08/10 04:06:43;;;;;;;;;7.75;7.25;;;;;15.26;54.49;100856.31;5119477;28;8855;-62
2022/08/10 04:09:10;;;;;;;;;3.00;3.00;;;;;15.25;54.15;100864.53;5119238;28;9539;-62
2022/08/10 04:11:40;;;;;;;;;7.75;7.75;;;;;15.24;54.22;100858.28;5118564;28;8836;-63
2022/08/10 04:14:08;;;;;;;;;8.50;8.00;;;;;15.23;54.44;100851.22;5118512;28;8869;-63
2022/08/10 04:16:56;;;;;;;;;7.50;7.50;;;;;15.25;54.03;100856.47;5118987;28;8836;-62
2022/08/10 04:19:24;;;;;;;;;8.25;7.25;;;;;15.23;54.40;100858.41;5119285;28;8851;-62
2022/08/10 04:21:51;;;;;;;;;9.25;7.50;;;;;15.19;54.38;100851.59;5118584;28;9641;-62
2022/08/10 04:24:19;;;;;;;;;9.00;8.00;;;;;15.12;54.68;100869.19;5117985;28;8862;-62
2022/08/10 04:26:55;;;;;;;;;6.50;6.50;;;;;15.04;54.98;100867.19;5117921;28;8990;-62
2022/08/10 04:29:23;;;;;;;;;6.75;6.50;;;;;14.95;54.83;100865.22;5118625;28;8828;-62
2022/08/10 04:31:51;;;;;;;;;6.25;6.25;;;;;14.93;55.33;100869.88;5131712;27;8802;-62
2022/08/10 04:34:19;;;;;;;;;9.00;6.50;;;;;14.93;54.90;100869.88;5138516;27;8826;-62
2022/08/10 04:36:47;;;;;;;;;7.00;7.00;;;;;14.94;54.53;100870.75;5139174;27;8818;-62
2022/08/10 04:39:14;;;;;;;;;6.50;6.50;;;;;14.98;55.13;100869.50;5138753;27;8948;-62
2022/08/10 04:41:43;;;;;;;;;9.00;6.00;;;;;15.00;54.86;100860.34;5139220;27;8837;-62
2022/08/10 04:44:13;;;;;;;;;8.50;8.50;;;;;15.06;54.34;100857.16;5138539;27;8833;-62
2022/08/10 04:46:41;;;;;;;;;9.25;9.25;;;;;15.15;54.44;100858.19;5138805;27;8847;-62
2022/08/10 04:49:24;;;;;;;;;10.00;9.50;;;;;15.29;54.58;100856.06;5139261;27;8934;-62
2022/08/10 04:52:12;;;;;;;;;9.00;8.00;;;;;15.52;53.79;100854.13;5138309;27;8848;-62
2022/08/10 04:54:40;;;;;;;;;6.50;6.50;;;;;15.64;53.62;100861.16;5138459;27;8987;-62
2022/08/10 04:57:08;;;;;;;;;8.00;7.50;;;;;15.70;53.79;100861.47;5137490;27;8846;-62
2022/08/10 04:59:36;;;;;;;;;6.00;6.00;;;;;15.73;53.70;100860.38;5137276;27;8956;-63
2022/08/10 05:02:04;;;;;;;;;5.50;5.50;;;;;15.74;53.52;100859.38;5121186;27;8820;-62
2022/08/10 05:04:51;;;;;;;;;8.00;8.00;;;;;15.79;53.44;100859.84;5116395;28;8844;-62
2022/08/10 05:07:19;;;;;;;;;6.75;6.00;;;;;15.85;53.39;100854.78;5135486;27;9452;-62
2022/08/10 05:09:51;;;;;;;;;7.50;7.00;;;;;15.93;53.27;100857.66;5135516;27;8956;-62
2022/08/10 05:12:31;;;;;;;;;9.00;9.00;;;;;16.07;53.38;100859.16;5135783;27;8960;-62
2022/08/10 05:15:03;;;;;;;;;11.50;9.00;;;;;16.23;52.74;100866.56;5136614;27;8872;-61
2022/08/10 05:17:31;;;;;;;;;12.00;12.00;;;;;16.40;52.32;100865.97;5136498;27;8952;-62
2022/08/10 05:19:59;;;;;;;;;9.00;9.00;;;;;16.57;52.15;100853.69;5136258;27;8856;-61
2022/08/10 05:22:32;;;;;;;;;13.00;12.50;;;;;16.78;52.28;100851.78;5135758;27;8825;-62
2022/08/10 05:24:59;;;;;;;;;10.50;10.00;;;;;16.98;51.98;100861.56;5134518;27;8855;-61
2022/08/10 05:27:27;;;;;;;;;10.25;9.50;;;;;17.11;51.58;100852.22;5136037;27;9484;-61
2022/08/10 05:29:55;;;;;;;;;7.00;7.00;;;;;17.27;51.71;100851.66;5136420;27;8875;-60
2022/08/10 05:32:29;;;;;;;;;9.00;8.50;;;;;17.42;51.02;100853.81;5136629;27;8813;-61
2022/08/10 05:34:57;;;;;;;;;17.00;15.75;;;;;17.55;51.24;100857.03;5134037;27;8944;-61
2022/08/10 05:37:25;;;;;;;;;9.25;9.25;;;;;17.67;50.65;100853.19;5135251;27;8833;-60
2022/08/10 05:40:12;;;;;;;;;10.50;10.00;;;;;17.79;51.24;100854.75;5134154;27;8854;-61
2022/08/10 05:42:40;;;;;;;;;9.25;9.25;;;;;17.92;50.87;100854.41;5133480;27;9180;-61
2022/08/10 05:45:09;;;;;;;;;9.75;9.25;;;;;18.05;50.58;100852.22;5133096;27;8968;-63
2022/08/10 05:47:37;;;;;;;;;12.75;12.50;;;;;18.16;50.86;100850.22;5132897;27;8829;-61
2022/08/10 05:50:25;;;;;;;;;14.50;13.00;;;;;18.25;50.27;100849.34;5134408;27;8837;-61
2022/08/10 05:52:53;;;;;;;;;9.50;9.50;;;;;18.32;50.76;100853.19;5134750;27;8845;-61
2022/08/10 05:55:21;;;;;;;;;15.50;13.50;;;;;18.43;50.34;100858.34;5133025;27;8861;-62
2022/08/10 05:57:48;;;;;;;;;10.40;9.60;;;;;18.56;50.41;100845.38;5130322;27;8826;-61
2022/08/10 06:00:20;;;;;;;;;9.80;9.80;;;;;18.71;50.23;100854.66;5132350;27;8856;-61
2022/08/10 06:03:06;;;;;;;;;13.00;12.80;;;;;18.90;49.95;100850.97;5132111;27;8888;-61
2022/08/10 06:05:34;;;;;;;;;12.40;11.20;;;;;19.05;49.61;100854.84;5132963;27;8864;-60
2022/08/10 06:08:02;;;;;;;;;13.80;13.80;;;;;19.16;49.33;100850.06;5132863;27;8847;-61
2022/08/10 06:10:30;;;;;;;;;11.20;10.40;;;;;19.27;49.10;100855.25;5132853;27;8829;-61
2022/08/10 06:15:59;;;;;;;;;10.00;10.00;;;;;19.59;48.68;100860.97;5132952;27;8922;-61
2022/08/10 06:18:27;;;;;;;;;12.40;12.00;;;;;19.73;48.34;100863.06;5133350;27;8837;-61
2022/08/10 06:20:55;;;;;;;;;16.80;16.00;;;;;19.88;48.27;100861.50;5132120;27;9545;-62
2022/08/10 06:23:23;;;;;;;;;13.60;13.40;;;;;19.99;48.62;100863.09;5132319;27;8834;-62
2022/08/10 06:25:50;;;;;;;;;12.80;10.80;;;;;20.10;48.10;100862.88;5131684;27;8883;-62
2022/08/10 06:28:38;;;;;;;;;13.00;10.80;;;;;20.24;48.44;100867.69;5130098;27;8846;-63
2022/08/10 06:31:06;;;;;;;;;7.00;5.40;;;;;20.34;48.17;100868.41;5133012;27;8844;-62
2022/08/10 06:33:34;;;;;;;;;11.00;10.20;;;;;20.45;47.65;100877.09;5131953;27;8968;-62
2022/08/10 06:36:02;;;;;;;;;11.00;11.00;;;;;20.56;48.15;100871.38;5134550;27;8852;-62
2022/08/10 06:38:30;;;;;;;;;10.80;10.60;;;;;20.69;47.43;100874.47;5132734;27;9602;-62
2022/08/10 06:40:57;;;;;;;;;10.20;8.80;;;;;20.81;47.66;100867.75;5134870;27;8817;-62
2022/08/10 06:43:25;;;;;;;;;7.40;7.40;;;;;20.95;47.48;100872.56;5135050;27;8849;-62
2022/08/10 06:45:53;;;;;;;;;11.60;11.60;;;;;21.07;47.38;100874.78;5134066;27;8891;-63
2022/08/10 06:48:35;;;;;;;;;10.60;10.20;;;;;21.20;47.08;100871.59;5133076;27;8838;-62
2022/08/10 06:51:02;;;;;;;;;9.40;7.80;;;;;21.34;46.95;100870.94;5133477;27;8818;-65
2022/08/10 06:53:30;;;;;;;;;8.60;8.00;;;;;21.46;46.50;100869.56;5134617;27;8837;-63
2022/08/10 06:56:18;;;;;;;;;8.20;8.20;;;;;21.56;46.34;100875.69;5132726;27;8837;-62
2022/08/10 06:59:04;;;;;;;;;8.80;8.60;;;;;21.64;46.57;100872.97;5133462;27;8861;-61
2022/08/10 07:01:32;;;;;;;;;8.40;8.00;;;;;21.72;46.42;100873.00;5132214;27;8971;-63
2022/08/10 07:04:00;;;;;;;;;7.00;7.00;;;;;21.83;46.28;100867.22;5130386;27;8930;-62
2022/08/10 07:06:28;;;;;;;;;11.00;10.60;;;;;21.94;46.09;100870.44;5129958;27;8925;-62
2022/08/10 07:08:56;;;;;;;;;9.00;8.60;;;;;22.08;46.18;100868.91;5128568;27;8856;-62
2022/08/10 07:11:24;;;;;;;;;8.00;7.40;;;;;22.21;46.06;100866.47;5125111;27;8963;-62
2022/08/10 07:13:51;;;;;;;;;9.80;9.00;;;;;22.35;45.70;100866.63;5129957;27;8837;-62
2022/08/10 07:16:41;;;;;;;;;9.20;8.00;;;;;22.51;45.39;100872.00;5129591;27;8845;-62
2022/08/10 07:19:09;;;;;;;;;8.80;8.00;;;;;22.64;45.50;100863.31;5131744;27;8822;-63
2022/08/10 07:21:37;;;;;;;;;8.60;8.00;;;;;22.77;45.14;100869.03;5132894;27;8960;-63
2022/08/10 07:24:06;;;;;;;;;10.40;9.20;;;;;22.89;44.75;100873.00;5133292;27;8864;-62
2022/08/10 07:26:35;;;;;;;;;8.00;8.00;;;;;23.05;44.79;100867.47;5131976;27;8965;-62
2022/08/10 07:29:03;;;;;;;;;9.00;8.20;;;;;23.21;44.53;100865.53;5111681;27;8891;-62
2022/08/10 07:31:30;;;;;;;;;9.80;9.20;;;;;23.34;44.60;100863.09;5129959;27;8918;-62
2022/08/10 07:34:18;;;;;;;;;8.60;8.40;;;;;23.48;44.23;100864.16;5130083;27;8850;-62
2022/08/10 07:36:55;;;;;;;;;5.00;5.00;;;;;23.59;43.91;100856.41;5133885;27;8854;-62
2022/08/10 07:39:23;;;;;;;;;8.20;8.20;;;;;23.75;44.19;100864.44;5132452;27;8849;-62
2022/08/10 07:42:11;;;;;;;;;8.40;8.40;;;;;23.91;43.30;100864.31;5134044;27;8983;-62
2022/08/10 07:44:39;;;;;;;;;7.20;6.60;;;;;24.04;43.79;100861.81;5136543;27;8834;-62
2022/08/10 07:47:07;;;;;;;;;9.00;8.80;;;;;24.15;43.28;100858.63;5136408;27;8844;-62
2022/08/10 07:49:34;;;;;;;;;8.20;7.20;;;;;24.24;43.02;100862.09;5136262;27;8971;-62
2022/08/10 07:52:02;;;;;;;;;11.20;10.00;;;;;24.33;42.97;100860.97;5136497;27;8845;-63
2022/08/10 07:54:30;;;;;;;;;9.00;7.00;;;;;24.43;43.23;100872.44;5135856;27;8833;-63
2022/08/10 07:56:58;;;;;;;;;7.00;7.00;;;;;24.50;43.09;100868.75;5136553;27;8830;-62
2022/08/10 07:59:26;;;;;;;;;7.00;6.80;;;;;24.56;42.52;100861.78;5136978;27;8833;-62
2022/08/10 08:01:53;;;;;;;;;9.40;9.40;;;;;24.66;43.04;100863.13;5136664;27;8910;-62
2022/08/10 08:04:21;;;;;;;;;5.20;5.20;;;;;24.77;42.63;100859.94;5136091;27;8857;-62
2022/08/10 08:06:49;;;;;;;;;6.40;6.40;;;;;24.89;42.57;100861.13;5136591;27;8876;-62
2022/08/10 08:09:17;;;;;;;;;9.00;8.20;;;;;25.01;42.08;100862.31;5136419;27;9486;-62
2022/08/10 08:11:45;;;;;;;;;10.80;9.80;;;;;25.13;42.20;100868.13;5135192;27;9514;-62
2022/08/10 08:14:13;;;;;;;;;10.00;8.60;;;;;25.22;42.11;100870.56;5135180;27;8872;-62
2022/08/10 08:16:40;;;;;;;;;6.80;6.80;;;;;25.32;41.95;100865.63;5136755;27;8846;-62
2022/08/10 08:19:08;;;;;;;;;10.00;10.00;;;;;25.45;41.66;100870.38;5136923;27;8933;-62
2022/08/10 08:21:54;;;;;;;;;5.00;5.00;;;;;25.58;41.71;100865.91;5135201;27;8938;-62
2022/08/10 08:24:43;;;;;;;;;10.00;10.00;;;;;25.68;41.47;100866.41;5134305;27;8837;-62
2022/08/10 08:27:11;;;;;;;;;9.60;9.60;;;;;25.78;41.19;100873.22;5133851;27;8842;-62
2022/08/10 08:29:39;;;;;;;;;7.00;7.00;;;;;25.84;41.65;100863.41;5134857;27;8852;-63
2022/08/10 08:32:07;;;;;;;;;8.00;8.00;;;;;25.93;41.49;100870.44;5135526;27;8951;-63
2022/08/10 08:34:35;;;;;;;;;10.00;9.80;;;;;26.03;41.33;100866.31;5135200;27;8838;-62
2022/08/10 08:37:03;;;;;;;;;7.00;7.00;;;;;26.14;40.97;100868.50;5134961;27;9602;-63
2022/08/10 08:39:31;;;;;;;;;10.00;8.20;;;;;26.25;40.53;100862.47;5134901;27;8826;-62
2022/08/10 08:42:00;;;;;;;;;7.60;7.00;;;;;26.36;40.42;100869.28;5136158;27;8841;-62
2022/08/10 08:44:28;;;;;;;;;8.00;8.00;;;;;26.41;40.05;100861.34;5135460;27;8952;-63
2022/08/10 08:47:01;;;;;;;;;9.60;8.80;;;;;26.51;39.94;100867.25;5134706;27;8834;-63
2022/08/10 08:49:29;;;;;;;;;8.20;8.20;;;;;26.58;39.96;100860.81;5134314;27;8987;-62
2022/08/10 08:52:16;;;;;;;;;8.20;8.20;;;;;26.69;39.80;100852.03;5134232;27;8841;-62
2022/08/10 08:54:45;;;;;;;;;6.20;6.00;;;;;26.79;39.97;100857.97;5135508;27;8910;-63
2022/08/10 08:57:13;;;;;;;;;8.20;8.00;;;;;26.88;39.60;100853.19;5134954;27;8822;-62
2022/08/10 09:00:01;;;;;;;;;9.00;9.00;;;;;26.97;39.64;100850.06;5136134;27;8838;-62
2022/08/10 09:02:29;;;;;;;;;11.20;9.40;;;;;27.06;39.26;100854.28;5135617;27;8809;-62
2022/08/10 09:04:57;;;;;;;;;8.20;7.60;;;;;27.16;39.42;100849.28;5135830;27;9166;-62
2022/08/10 09:07:25;;;;;;;;;9.40;9.40;;;;;27.28;39.50;100835.84;5136008;27;8892;-62
2022/08/10 09:10:12;;;;;;;;;8.60;8.60;;;;;27.42;39.54;100837.56;5135786;27;9309;-62
2022/08/10 09:12:40;;;;;;;;;7.40;7.00;;;;;27.56;39.03;100833.78;5135608;27;8980;-62
2022/08/10 09:15:08;;;;;;;;;8.00;8.00;;;;;27.71;38.66;100843.47;5136189;27;8837;-63
2022/08/10 09:17:56;;;;;;;;;8.60;8.00;;;;;27.84;38.54;100829.81;5135112;27;8826;-62
2022/08/10 09:20:24;;;;;;;;;8.40;8.00;;;;;27.95;38.36;100820.97;5136292;27;8950;-61
2022/08/10 09:22:52;;;;;;;;;8.00;8.00;;;;;28.07;38.13;100830.19;5135629;27;8848;-62
2022/08/10 09:25:24;;;;;;;;;6.60;6.60;;;;;28.19;37.99;100823.03;5135918;27;8825;-63
2022/08/10 09:27:51;;;;;;;;;9.80;9.20;;;;;28.31;37.78;100828.69;5135271;27;8846;-63
2022/08/10 09:30:19;;;;;;;;;8.00;7.60;;;;;28.38;37.68;100822.16;5136187;27;8834;-63
2022/08/10 09:32:58;;;;;;;;;8.00;8.00;;;;;28.47;37.65;100818.13;5135498;27;8826;-63
2022/08/10 09:35:45;;;;;;;;;8.60;7.80;;;;;28.60;37.19;100809.84;5133618;27;8888;-62
2022/08/10 09:38:33;;;;;;;;;7.40;6.20;;;;;28.76;37.20;100812.09;5134109;27;8862;-63
2022/08/10 09:41:01;;;;;;;;;8.00;8.00;;;;;28.91;36.49;100806.34;5134793;27;8871;-62
2022/08/10 09:43:38;;;;;;;;;8.40;8.20;;;;;29.09;36.30;100801.81;5135299;27;8822;-62
2022/08/10 09:46:06;;;;;;;;;9.00;9.00;;;;;29.36;36.05;100799.75;5133285;27;8821;-62
2022/08/10 09:48:38;;;;;;;;;9.60;9.60;;;;;29.75;35.42;100800.31;5133271;27;8837;-63
2022/08/10 09:51:06;;;;;;;;;8.60;8.00;;;;;30.24;34.98;100803.00;5133572;27;9835;-63
2022/08/10 09:53:54;;;;;;;;;8.00;8.00;;;;;30.75;33.74;100795.22;5132514;27;8896;-62
2022/08/10 09:56:22;;;;;;;;;9.20;8.80;;;;;31.25;34.02;100791.97;5133768;27;8845;-62
2022/08/10 09:58:55;;;;;;;;;9.40;8.60;;;;;31.71;33.10;100794.84;5132101;27;8821;-62
2022/08/10 10:01:43;;;;;;;;;7.80;7.80;;;;;32.19;32.68;100792.69;5132772;27;8841;-62
2022/08/10 10:04:29;;;;;;;;;6.00;6.00;;;;;32.74;31.97;100777.38;5133601;27;8842;-63
2022/08/10 10:06:57;;;;;;;;;8.40;7.20;;;;;33.14;31.60;100782.84;5134036;27;8849;-63
2022/08/10 10:09:27;;;;;;;;;7.00;7.00;;;;;33.56;32.17;100786.94;5132354;27;8967;-63
2022/08/10 10:11:55;;;;;;;;;9.20;8.00;;;;;33.90;31.06;100788.66;5131743;27;8922;-63
2022/08/10 10:14:31;;;;;;;;;6.00;6.00;;;;;34.24;30.47;100777.31;5131061;27;9518;-63
2022/08/10 10:17:00;;;;;;;;;7.20;7.00;;;;;34.52;31.00;100773.50;5128402;27;8915;-63
2022/08/10 10:19:28;;;;;;;;;8.00;8.00;;;;;34.77;30.30;100771.06;5127586;27;8822;-63
2022/08/10 10:21:56;;;;;;;;;6.40;6.40;;;;;34.96;30.13;100769.66;5127183;27;8841;-64
2022/08/10 10:24:24;;;;;;;;;8.20;7.40;;;;;35.24;29.81;100758.31;5128399;27;9023;-63
2022/08/10 10:26:52;;;;;;;;;7.40;7.40;;;;;35.50;29.68;100760.22;5127972;27;8845;-62
2022/08/10 10:29:20;;;;;;;;;6.00;5.40;;;;;35.63;28.94;100754.22;5127381;27;8865;-63
2022/08/10 10:32:07;;;;;;;;;7.00;7.00;;;;;35.67;28.62;100755.34;5128253;27;9309;-63
2022/08/10 10:34:35;;;;;;;;;7.80;7.80;;;;;35.75;29.20;100752.97;5130343;27;8959;-63
2022/08/10 10:37:05;;;;;;;;;8.40;8.40;;;;;35.97;28.17;100753.69;5129641;27;8979;-63
2022/08/10 10:39:33;;;;;;;;;7.60;7.40;;;;;36.17;28.04;100754.66;5129674;27;8894;-63
2022/08/10 10:42:00;;;;;;;;;6.80;6.80;;;;;36.43;27.92;100753.66;5129957;27;8834;-63
2022/08/10 10:44:30;;;;;;;;;6.20;6.20;;;;;36.58;28.06;100747.34;5130970;27;9202;-63
2022/08/10 10:46:58;;;;;;;;;8.00;7.00;;;;;36.69;28.14;100746.28;5130053;27;8837;-63
2022/08/10 10:49:27;;;;;;;;;9.00;9.00;;;;;36.91;27.60;100750.53;5131101;27;9507;-63
2022/08/10 10:51:55;;;;;;;;;8.80;8.60;;;;;37.08;27.04;100755.91;5132573;27;8829;-64
2022/08/10 10:54:29;;;;;;;;;8.60;8.40;;;;;37.23;27.05;100737.28;5132272;27;8837;-63
2022/08/10 10:56:57;;;;;;;;;9.20;9.00;;;;;37.47;26.86;100737.56;5130950;27;9592;-63
2022/08/10 10:59:25;;;;;;;;;9.00;8.00;;;;;37.77;26.54;100743.13;5131183;27;8848;-62
2022/08/10 11:02:12;;;;;;;;;6.80;6.80;;;;;38.09;26.96;100738.09;5129733;27;8850;-64
2022/08/10 11:04:40;;;;;;;;;10.00;8.00;;;;;38.32;26.14;100741.09;5132817;27;8836;-63
2022/08/10 11:07:09;;;;;;;;;8.20;7.60;;;;;38.56;26.01;100728.19;5134424;27;8996;-63
2022/08/10 11:09:40;;;;;;;;;7.40;7.40;;;;;38.70;25.15;100732.03;5133089;27;8856;-64
2022/08/10 11:12:28;;;;;;;;;7.00;7.00;;;;;38.61;25.42;100736.50;5136961;27;8988;-63
2022/08/10 11:14:58;;;;;;;;;6.60;6.20;;;;;38.53;25.60;100731.53;5138088;27;8910;-64
2022/08/10 11:17:27;;;;;;;;;7.00;7.00;;;;;38.59;25.89;100724.81;5136150;27;9637;-63
2022/08/10 11:19:55;;;;;;;;;7.00;7.00;;;;;38.92;25.33;100721.34;5137359;27;8964;-63
2022/08/10 11:22:29;;;;;;;;;6.20;6.20;;;;;39.17;25.02;100709.13;5137544;27;8853;-63
2022/08/10 11:25:03;;;;;;;;;7.60;7.60;;;;;39.21;25.12;100708.25;5133954;27;8822;-63
2022/08/10 11:27:31;;;;;;;;;7.00;6.20;;;;;39.39;24.86;100712.34;5134728;27;8822;-63
2022/08/10 11:29:59;;;;;;;;;7.80;7.20;;;;;39.64;24.41;100714.91;5135520;27;8841;-63
2022/08/10 11:32:26;;;;;;;;;8.80;7.80;;;;;39.78;24.69;100705.56;5136469;27;8826;-63
2022/08/10 11:34:54;;;;;;;;;6.40;6.40;;;;;39.89;24.22;100701.53;5135041;27;8876;-64
2022/08/10 11:37:38;;;;;;;;;6.00;6.00;;;;;40.05;24.09;100697.47;5135661;27;8980;-63
2022/08/10 11:40:26;;;;;;;;;7.40;7.00;;;;;40.25;23.85;100694.44;5134278;27;9198;-63
2022/08/10 11:42:54;;;;;;;;;7.40;7.40;;;;;40.28;23.18;100696.66;5135084;27;8983;-63
2022/08/10 11:45:22;;;;;;;;;5.80;5.80;;;;;40.35;24.18;100694.31;5135270;27;8854;-63
2022/08/10 11:47:50;;;;;;;;;6.00;6.00;;;;;40.36;23.85;100698.78;5133081;27;8849;-63
2022/08/10 11:50:17;;;;;;;;;6.00;5.20;;;;;40.53;23.24;100692.69;5133588;27;8973;-64
2022/08/10 11:52:45;;;;;;;;;7.00;7.00;;;;;40.62;22.83;100699.31;5116992;27;8980;-63
2022/08/10 11:55:13;;;;;;;;;5.00;4.40;;;;;40.64;23.13;100703.44;5135208;27;9527;-65